Time;durP1;ratioP1;P1;durP2;ratioP2;P2;SDS_P1;SDS_P2;PMS_P1;PMS_P2;Temp;Humidity;BMP_temperature;BMP_pressure;BME280_temperature;BME280_humidity;BME280_pressure;Samples;Min_cycle;Max_cycle;Signal;HPM_P1;HPM_P2
2022/09/02 00:00:06;;;;;;;3.40;1.10;;;21.00;55.20;;;;;;5929271;24;20160;-87
2022/09/02 00:02:34;;;;;;;1.17;1.00;;;21.00;55.30;;;;;;5952781;24;20267;-87
2022/09/02 00:05:02;;;;;;;2.50;1.20;;;21.00;55.30;;;;;;5930315;24;20243;-88
2022/09/02 00:07:29;;;;;;;1.15;1.00;;;21.00;55.30;;;;;;5929519;24;20191;-87
2022/09/02 00:09:55;;;;;;;2.13;1.00;;;21.00;55.30;;;;;;5952931;24;20175;-87
2022/09/02 00:12:24;;;;;;;1.30;1.00;;;21.00;55.30;;;;;;5930334;24;20593;-87
2022/09/02 00:14:49;;;;;;;1.67;1.10;;;21.00;55.30;;;;;;5975911;24;20202;-87
2022/09/02 00:17:15;;;;;;;2.20;0.88;;;21.00;55.30;;;;;;5953057;24;20160;-87
2022/09/02 00:19:41;;;;;;;1.20;0.90;;;21.00;55.30;;;;;;5979570;24;20626;-87
2022/09/02 00:22:06;;;;;;;1.25;1.10;;;21.00;55.30;;;;;;5966421;24;20172;-87
2022/09/02 00:24:32;;;;;;;2.97;1.50;;;21.00;55.30;;;;;;5957931;24;20198;-87
2022/09/02 00:26:59;;;;;;;1.83;1.33;;;21.00;55.40;;;;;;5985124;23;20169;-87
2022/09/02 00:29:35;;;;;;;2.92;1.30;;;21.00;55.40;;;;;;6008792;23;20150;-88
2022/09/02 00:32:00;;;;;;;2.15;1.15;;;21.00;55.50;;;;;;6057045;23;20484;-87
2022/09/02 00:34:26;;;;;;;2.40;1.25;;;21.00;55.40;;;;;;6100472;23;20180;-87
2022/09/02 00:36:52;;;;;;;2.58;1.00;;;21.00;55.40;;;;;;6078710;23;20136;-88
2022/09/02 00:39:25;;;;;;;2.22;1.00;;;21.00;55.50;;;;;;6105628;23;20147;-87
2022/09/02 00:41:54;;;;;;;1.55;1.17;;;21.00;55.50;;;;;;6029234;23;20223;-88
2022/09/02 00:44:24;;;;;;;2.88;1.20;;;20.90;55.40;;;;;;6027586;23;20160;-87
2022/09/02 00:46:54;;;;;;;1.50;0.85;;;20.90;55.40;;;;;;6051264;23;20160;-87
2022/09/02 00:49:24;;;;;;;2.08;1.00;;;21.00;55.50;;;;;;6051254;23;20167;-87
2022/09/02 00:52:20;;;;;;;1.30;1.10;;;21.00;55.50;;;;;;6099469;23;20144;-87
2022/09/02 00:54:50;;;;;;;2.35;1.30;;;21.00;55.50;;;;;;6105296;23;20160;-87
2022/09/02 00:57:22;;;;;;;2.00;1.15;;;21.00;55.50;;;;;;6067133;23;20168;-87
2022/09/02 01:00:16;;;;;;;1.50;1.20;;;21.00;55.50;;;;;;6043849;23;20165;-88
2022/09/02 01:02:59;;;;;;;3.63;1.08;;;21.00;55.50;;;;;;6019663;23;20157;-87
2022/09/02 01:05:30;;;;;;;1.10;0.90;;;21.00;55.50;;;;;;6043432;23;20609;-88
2022/09/02 01:08:00;;;;;;;2.08;1.10;;;21.00;55.50;;;;;;6043513;23;20319;-88
2022/09/02 01:10:29;;;;;;;2.03;1.00;;;20.90;55.60;;;;;;6043321;23;20161;-87
2022/09/02 01:12:56;;;;;;;1.95;1.00;;;21.00;55.60;;;;;;6067146;23;20240;-87
2022/09/02 01:15:22;;;;;;;1.40;1.20;;;20.90;55.50;;;;;;6042457;23;20236;-88
2022/09/02 01:17:49;;;;;;;1.55;1.10;;;21.00;55.50;;;;;;6067361;23;20161;-87
2022/09/02 01:20:22;;;;;;;2.03;1.30;;;21.00;55.60;;;;;;6069762;23;20519;-87
2022/09/02 01:22:48;;;;;;;1.80;1.10;;;21.00;55.60;;;;;;6047806;23;20164;-88
2022/09/02 01:25:19;;;;;;;1.52;0.88;;;21.00;55.60;;;;;;6048198;23;20161;-88
2022/09/02 01:27:47;;;;;;;1.05;0.90;;;21.00;55.60;;;;;;6025001;23;20240;-87
2022/09/02 01:30:15;;;;;;;2.78;1.10;;;21.00;56.30;;;;;;6048656;23;20607;-87
2022/09/02 01:32:41;;;;;;;1.77;1.17;;;20.90;55.60;;;;;;6048409;23;20164;-88
2022/09/02 01:35:07;;;;;;;1.15;1.05;;;20.90;55.70;;;;;;6048090;23;20251;-87
2022/09/02 01:37:33;;;;;;;2.08;1.08;;;21.00;55.70;;;;;;6048000;23;20200;-88
2022/09/02 01:40:01;;;;;;;1.30;1.05;;;20.90;55.60;;;;;;6051291;23;20208;-87
2022/09/02 01:42:27;;;;;;;0.93;0.80;;;20.90;55.70;;;;;;6131540;23;20136;-87
2022/09/02 01:44:53;;;;;;;1.58;1.13;;;20.90;55.70;;;;;;6155704;23;20156;-87
2022/09/02 01:47:25;;;;;;;2.38;1.10;;;20.90;55.70;;;;;;6107000;23;20151;-87
2022/09/02 01:49:55;;;;;;;2.95;1.00;;;20.90;55.80;;;;;;6035975;23;20187;-87
2022/09/02 01:52:24;;;;;;;1.60;1.17;;;20.90;55.70;;;;;;6058157;23;20156;-87
2022/09/02 01:54:52;;;;;;;1.38;1.13;;;20.90;55.70;;;;;;6106348;23;20191;-87
2022/09/02 01:57:23;;;;;;;1.67;0.98;;;20.90;55.70;;;;;;6058122;23;20239;-87
2022/09/02 01:59:53;;;;;;;1.23;1.00;;;20.90;55.80;;;;;;6106817;23;20453;-87
2022/09/02 02:02:29;;;;;;;2.17;1.00;;;20.90;55.80;;;;;;6106152;23;20163;-87
2022/09/02 02:04:56;;;;;;;1.77;1.10;;;20.90;55.80;;;;;;6054828;23;20174;-87
2022/09/02 02:07:23;;;;;;;2.58;1.17;;;20.90;55.70;;;;;;6100072;23;20160;-87
2022/09/02 02:09:53;;;;;;;1.05;0.95;;;20.90;55.80;;;;;;6042567;23;20467;-88
2022/09/02 02:12:19;;;;;;;2.33;1.30;;;20.90;56.50;;;;;;5995853;23;20168;-87
2022/09/02 02:14:47;;;;;;;1.23;1.08;;;20.90;55.90;;;;;;6019255;23;20685;-87
2022/09/02 02:17:13;;;;;;;1.35;1.10;;;20.90;55.80;;;;;;6019445;23;20134;-87
2022/09/02 02:19:42;;;;;;;1.95;1.13;;;20.90;55.80;;;;;;6019211;23;20192;-87
2022/09/02 02:22:12;;;;;;;1.08;0.85;;;20.90;55.80;;;;;;5981554;24;20171;-87
2022/09/02 02:24:41;;;;;;;2.28;1.10;;;20.90;55.80;;;;;;5981117;24;20159;-87
2022/09/02 02:27:07;;;;;;;1.15;0.85;;;20.90;55.90;;;;;;5981102;24;20167;-87
2022/09/02 02:29:32;;;;;;;1.13;1.02;;;20.90;55.80;;;;;;5956587;24;20164;-87
2022/09/02 02:31:59;;;;;;;2.63;1.15;;;20.90;55.90;;;;;;5981939;24;20274;-87
2022/09/02 02:34:28;;;;;;;1.17;0.95;;;20.90;55.90;;;;;;5981405;24;20223;-87
2022/09/02 02:36:54;;;;;;;1.83;1.10;;;20.90;55.90;;;;;;6006614;23;20185;-87
2022/09/02 02:39:22;;;;;;;2.05;1.30;;;20.90;55.90;;;;;;6009864;23;20678;-87
2022/09/02 02:41:51;;;;;;;1.27;1.00;;;20.90;55.90;;;;;;6039889;23;20199;-87
2022/09/02 02:44:20;;;;;;;1.70;0.77;;;20.90;56.00;;;;;;6042336;23;20158;-87
2022/09/02 02:46:48;;;;;;;3.65;1.10;;;20.90;56.00;;;;;;6042782;23;20304;-87
2022/09/02 02:49:16;;;;;;;0.95;0.90;;;20.90;56.00;;;;;;6042468;23;20165;-87
2022/09/02 02:51:48;;;;;;;2.42;1.10;;;20.90;56.00;;;;;;6018676;23;20157;-87
2022/09/02 02:54:14;;;;;;;0.98;0.90;;;20.90;56.00;;;;;;6128980;23;20193;-87
2022/09/02 02:56:39;;;;;;;2.13;0.90;;;20.90;56.00;;;;;;6104902;23;20254;-87
2022/09/02 02:59:16;;;;;;;1.17;0.80;;;20.90;55.90;;;;;;6105086;23;20155;-87
2022/09/02 03:01:51;;;;;;;1.80;1.13;;;20.90;56.60;;;;;;6105123;23;20215;-87
2022/09/02 03:04:19;;;;;;;1.17;1.08;;;20.90;56.00;;;;;;6098465;23;20164;-87
2022/09/02 03:06:44;;;;;;;1.38;1.10;;;20.90;56.00;;;;;;6076273;23;20187;-88
2022/09/02 03:09:11;;;;;;;2.72;1.20;;;20.90;56.00;;;;;;6099933;23;20627;-87
2022/09/02 03:11:37;;;;;;;1.25;0.98;;;20.90;56.10;;;;;;6075818;23;20517;-87
2022/09/02 03:14:07;;;;;;;0.82;0.80;;;20.90;56.00;;;;;;6076201;23;20213;-87
2022/09/02 03:16:34;;;;;;;1.23;0.80;;;20.80;56.00;;;;;;6076067;23;20207;-87
2022/09/02 03:19:00;;;;;;;1.48;1.00;;;20.90;56.00;;;;;;6075711;23;20242;-87
2022/09/02 03:21:32;;;;;;;1.25;0.90;;;20.90;56.10;;;;;;6075866;23;20194;-87
2022/09/02 03:24:01;;;;;;;1.80;1.20;;;20.90;56.10;;;;;;6051424;23;20223;-88
2022/09/02 03:26:33;;;;;;;1.08;0.98;;;20.90;56.10;;;;;;6090132;23;20149;-87
2022/09/02 03:29:03;;;;;;;1.50;1.00;;;20.80;56.10;;;;;;6041931;23;20161;-88
2022/09/02 03:31:29;;;;;;;2.10;1.00;;;20.90;56.10;;;;;;6042072;23;20154;-87
2022/09/02 03:33:59;;;;;;;0.88;0.88;;;20.90;56.10;;;;;;6066284;23;20161;-87
2022/09/02 03:36:28;;;;;;;1.10;0.90;;;20.90;56.10;;;;;;6129619;23;20155;-87
2022/09/02 03:38:59;;;;;;;1.98;0.90;;;20.90;56.10;;;;;;6076500;23;20202;-87
2022/09/02 03:41:29;;;;;;;1.85;0.98;;;20.80;56.10;;;;;;6052115;23;20156;-87
2022/09/02 03:43:58;;;;;;;2.50;1.20;;;20.80;56.10;;;;;;6052576;23;20192;-87
2022/09/02 03:46:30;;;;;;;1.58;1.10;;;20.90;56.10;;;;;;6051943;23;20262;-87
2022/09/02 03:48:55;;;;;;;1.20;0.90;;;20.90;56.20;;;;;;6126094;23;20156;-87
2022/09/02 03:51:22;;;;;;;1.65;1.00;;;20.90;56.20;;;;;;6100572;23;20207;-87
2022/09/02 03:53:58;;;;;;;1.65;1.10;;;20.80;56.10;;;;;;6124816;23;20196;-87
2022/09/02 03:56:27;;;;;;;1.55;0.80;;;20.80;56.10;;;;;;6125682;23;20152;-87
2022/09/02 03:58:55;;;;;;;1.60;0.85;;;20.80;56.10;;;;;;6125083;23;20152;-87
2022/09/02 04:01:26;;;;;;;1.80;0.90;;;20.90;56.10;;;;;;6060999;23;20598;-87
2022/09/02 04:03:56;;;;;;;1.33;0.90;;;20.90;56.20;;;;;;6060863;23;20267;-88
2022/09/02 04:06:23;;;;;;;1.80;1.00;;;20.90;56.20;;;;;;6014253;23;20161;-87
2022/09/02 04:08:55;;;;;;;2.85;1.05;;;20.90;56.10;;;;;;6013710;23;20559;-87
2022/09/02 04:11:22;;;;;;;1.20;1.10;;;20.90;56.10;;;;;;5990080;23;20161;-87
2022/09/02 04:13:52;;;;;;;2.47;1.00;;;20.80;56.00;;;;;;5990072;23;20173;-87
2022/09/02 04:16:27;;;;;;;1.00;0.80;;;20.90;56.20;;;;;;5985484;23;20174;-87
2022/09/02 04:19:00;;;;;;;0.90;0.90;;;20.90;56.10;;;;;;5963253;23;20479;-87
2022/09/02 04:21:27;;;;;;;1.50;0.80;;;20.90;56.10;;;;;;5985590;23;20226;-87
2022/09/02 04:23:59;;;;;;;1.63;0.98;;;20.90;56.20;;;;;;5985480;23;20158;-87
2022/09/02 04:26:28;;;;;;;2.15;1.10;;;20.90;56.20;;;;;;5962309;23;20616;-87
2022/09/02 04:29:01;;;;;;;0.80;0.80;;;20.90;56.10;;;;;;5985315;23;20151;-87
2022/09/02 04:31:29;;;;;;;0.90;0.88;;;20.90;56.20;;;;;;5999402;23;20156;-87
2022/09/02 04:33:55;;;;;;;1.75;0.98;;;20.80;56.10;;;;;;6049399;23;20164;-87
2022/09/02 04:36:21;;;;;;;0.85;0.75;;;20.90;56.10;;;;;;6026561;23;20161;-87
2022/09/02 04:38:48;;;;;;;1.40;1.00;;;20.80;56.00;;;;;;6068664;23;20625;-87
2022/09/02 04:41:16;;;;;;;1.67;0.85;;;20.90;56.70;;;;;;6097413;23;20164;-87
2022/09/02 04:43:43;;;;;;;1.05;0.82;;;20.90;56.00;;;;;;6096428;23;20137;-87
2022/09/02 04:46:13;;;;;;;1.05;0.95;;;20.80;56.00;;;;;;6098613;23;20157;-87
2022/09/02 04:48:39;;;;;;;1.73;1.00;;;20.80;56.00;;;;;;6079512;23;20155;-87
2022/09/02 04:51:09;;;;;;;1.15;0.80;;;20.80;56.10;;;;;;6055943;23;20155;-87
2022/09/02 04:53:38;;;;;;;1.75;1.00;;;20.80;56.00;;;;;;6056717;23;20235;-87
2022/09/02 04:56:06;;;;;;;1.88;0.90;;;20.80;56.00;;;;;;6079565;23;20192;-87
2022/09/02 04:58:43;;;;;;;0.93;0.82;;;20.80;55.70;;;;;;6044450;23;20168;-87
2022/09/02 05:01:14;;;;;;;1.40;1.00;;;20.80;55.90;;;;;;6038097;23;20164;-87
2022/09/02 05:03:47;;;;;;;1.15;1.00;;;20.80;55.60;;;;;;6038708;23;20240;-87
2022/09/02 05:06:21;;;;;;;0.98;0.85;;;20.90;55.90;;;;;;6039492;23;20162;-87
2022/09/02 05:08:59;;;;;;;1.05;0.75;;;20.80;55.30;;;;;;5993741;23;20169;-87
2022/09/02 05:11:37;;;;;;;1.30;0.80;;;20.80;55.30;;;;;;6038221;23;20221;-87
2022/09/02 05:14:07;;;;;;;0.95;0.65;;;20.80;54.80;;;;;;5959648;24;20619;-87
2022/09/02 05:16:38;;;;;;;1.08;0.73;;;20.80;54.60;;;;;;5982228;23;20239;-87
2022/09/02 05:19:08;;;;;;;0.95;0.80;;;20.70;54.50;;;;;;5982229;23;20169;-87
2022/09/02 05:21:46;;;;;;;0.85;0.75;;;20.70;54.10;;;;;;6005453;23;20297;-88
2022/09/02 05:24:25;;;;;;;1.23;1.00;;;20.70;54.10;;;;;;6006119;23;20259;-87
2022/09/02 05:26:55;;;;;;;1.73;0.70;;;20.70;53.90;;;;;;5959552;24;20162;-88
2022/09/02 05:29:26;;;;;;;1.02;0.50;;;20.80;53.90;;;;;;5992349;23;20490;-88
2022/09/02 05:31:55;;;;;;;1.77;0.55;;;20.70;53.60;;;;;;5996671;23;20173;-87
2022/09/02 05:34:23;;;;;;;0.70;0.70;;;20.70;53.40;;;;;;6019720;23;20189;-87
2022/09/02 05:36:52;;;;;;;0.70;0.70;;;20.70;53.30;;;;;;6019447;23;20158;-87
2022/09/02 05:39:27;;;;;;;0.60;0.60;;;20.70;53.70;;;;;;5969784;23;20173;-87
2022/09/02 05:41:57;;;;;;;0.90;0.60;;;20.70;53.10;;;;;;5968354;23;20222;-87
2022/09/02 05:44:28;;;;;;;1.35;0.80;;;20.70;52.90;;;;;;5993048;23;20491;-87
2022/09/02 05:46:54;;;;;;;0.80;0.60;;;20.70;52.90;;;;;;6017031;23;20185;-87
2022/09/02 05:49:20;;;;;;;0.50;0.50;;;20.70;52.80;;;;;;6016643;23;20158;-87
2022/09/02 05:51:51;;;;;;;0.50;0.50;;;20.70;52.60;;;;;;6057347;23;20167;-87
2022/09/02 05:54:20;;;;;;;0.65;0.65;;;20.70;52.60;;;;;;6080897;23;20164;-85
2022/09/02 05:56:48;;;;;;;0.75;0.65;;;20.70;52.40;;;;;;6103125;23;20125;-86
2022/09/02 05:59:15;;;;;;;2.80;0.70;;;20.70;52.40;;;;;;6079481;23;20184;-85
2022/09/02 06:01:41;;;;;;;1.75;0.50;;;20.70;52.30;;;;;;6079233;23;20229;-86
2022/09/02 06:04:11;;;;;;;0.68;0.45;;;20.70;52.30;;;;;;6054782;23;20152;-87
2022/09/02 06:06:37;;;;;;;0.57;0.57;;;20.60;52.20;;;;;;6056534;23;20156;-86
2022/09/02 06:09:07;;;;;;;0.40;0.40;;;20.60;52.10;;;;;;6103008;23;20191;-87
2022/09/02 06:11:38;;;;;;;0.70;0.60;;;20.70;52.10;;;;;;6079646;23;20143;-89
2022/09/02 06:14:08;;;;;;;0.57;0.50;;;20.60;52.60;;;;;;6053598;23;20164;-86
2022/09/02 06:16:37;;;;;;;0.60;0.60;;;20.60;52.00;;;;;;6053819;23;20160;-86
2022/09/02 06:19:04;;;;;;;0.57;0.57;;;20.70;51.90;;;;;;6078950;23;20561;-88
2022/09/02 06:21:41;;;;;;;0.60;0.60;;;20.60;52.00;;;;;;6078180;23;20152;-86
2022/09/02 06:24:14;;;;;;;0.43;0.43;;;20.60;51.90;;;;;;6056608;23;20592;-86
2022/09/02 06:26:42;;;;;;;1.10;0.50;;;20.70;51.90;;;;;;6054100;23;20156;-86
2022/09/02 06:29:12;;;;;;;0.55;0.55;;;20.70;51.90;;;;;;6078330;23;20140;-85
2022/09/02 06:31:43;;;;;;;0.70;0.70;;;20.60;51.90;;;;;;6028749;23;20163;-85
2022/09/02 06:34:14;;;;;;;0.60;0.60;;;20.70;52.00;;;;;;6029416;23;20563;-87
2022/09/02 06:36:45;;;;;;;0.60;0.55;;;20.70;51.80;;;;;;6077389;23;20160;-86
2022/09/02 06:39:12;;;;;;;0.60;0.60;;;20.70;51.80;;;;;;6053893;23;20172;-87
2022/09/02 06:41:39;;;;;;;0.50;0.50;;;20.70;51.80;;;;;;6054409;23;20148;-87
2022/09/02 06:44:06;;;;;;;0.70;0.60;;;20.70;51.70;;;;;;6078966;23;20136;-86
2022/09/02 06:46:35;;;;;;;0.73;0.60;;;20.70;51.60;;;;;;6054854;23;20205;-87
2022/09/02 06:49:05;;;;;;;0.47;0.47;;;20.80;51.40;;;;;;6043939;23;20158;-86
2022/09/02 06:51:35;;;;;;;0.85;0.60;;;20.80;51.20;;;;;;6021030;23;20232;-86
2022/09/02 06:54:05;;;;;;;0.88;0.65;;;20.80;51.10;;;;;;5997146;23;20240;-86
2022/09/02 06:56:34;;;;;;;0.55;0.50;;;20.90;51.00;;;;;;6019757;23;20157;-86
2022/09/02 06:59:07;;;;;;;0.50;0.50;;;21.00;50.80;;;;;;6019116;23;20157;-87
2022/09/02 07:01:37;;;;;;;0.60;0.60;;;21.00;50.70;;;;;;6019187;23;20157;-86
2022/09/02 07:06:56;;;;;;;0.73;0.60;;;21.10;51.30;;;;;;6026515;23;20209;-87
2022/09/02 07:09:29;;;;;;;0.60;0.60;;;21.10;50.30;;;;;;5973466;23;20157;-87
2022/09/02 07:12:01;;;;;;;0.50;0.50;;;21.10;50.30;;;;;;6021825;23;20601;-87
2022/09/02 07:14:27;;;;;;;0.60;0.55;;;21.10;50.30;;;;;;5972491;23;20213;-87
2022/09/02 07:16:56;;;;;;;2.17;0.75;;;21.20;50.30;;;;;;6019480;23;20202;-87
2022/09/02 07:19:23;;;;;;;1.15;0.60;;;21.20;50.30;;;;;;6010541;23;20492;-86
2022/09/02 07:21:56;;;;;;;0.60;0.50;;;21.10;50.20;;;;;;6071273;23;20224;-86
2022/09/02 07:24:27;;;;;;;0.73;0.60;;;21.10;50.10;;;;;;6066365;23;20161;-86
2022/09/02 07:26:59;;;;;;;0.65;0.60;;;21.20;50.00;;;;;;6018724;23;20193;-87
2022/09/02 07:29:28;;;;;;;0.70;0.68;;;21.20;50.00;;;;;;5996206;23;20597;-87
2022/09/02 07:31:57;;;;;;;1.20;0.60;;;21.20;49.90;;;;;;5995172;23;20224;-85
2022/09/02 07:34:28;;;;;;;0.45;0.45;;;21.20;50.00;;;;;;5995004;23;20261;-86
2022/09/02 07:36:56;;;;;;;0.50;0.50;;;21.10;50.00;;;;;;5963331;23;20158;-86
2022/09/02 07:39:35;;;;;;;0.50;0.50;;;21.10;50.00;;;;;;5990666;23;20216;-87
2022/09/02 07:42:06;;;;;;;0.60;0.50;;;21.10;50.00;;;;;;5970776;23;20219;-87
2022/09/02 07:44:36;;;;;;;0.40;0.40;;;21.10;49.90;;;;;;5989974;23;20161;-86
2022/09/02 07:47:04;;;;;;;0.55;0.55;;;21.20;49.70;;;;;;5991047;23;20244;-86
2022/09/02 07:49:32;;;;;;;0.57;0.57;;;21.20;49.60;;;;;;5984000;23;20586;-86
2022/09/02 07:52:06;;;;;;;0.40;0.40;;;21.10;49.60;;;;;;5991191;23;20166;-87
2022/09/02 07:54:41;;;;;;;0.40;0.40;;;21.20;49.40;;;;;;6060070;23;20186;-86
2022/09/02 07:57:10;;;;;;;0.50;0.50;;;21.20;49.20;;;;;;6033331;23;20161;-87
2022/09/02 07:59:37;;;;;;;0.50;0.50;;;21.30;49.20;;;;;;6009002;23;20491;-87
2022/09/02 08:02:08;;;;;;;0.45;0.43;;;21.20;49.20;;;;;;6009045;23;20170;-85
2022/09/02 08:04:38;;;;;;;0.68;0.60;;;21.20;49.00;;;;;;5980569;24;20163;-86
2022/09/02 08:07:05;;;;;;;0.70;0.63;;;21.20;49.00;;;;;;5958851;24;20608;-87
2022/09/02 08:09:32;;;;;;;0.60;0.55;;;21.20;49.20;;;;;;5913477;24;20190;-88
2022/09/02 08:11:59;;;;;;;0.63;0.50;;;21.20;49.60;;;;;;5935509;24;20588;-87
2022/09/02 08:14:31;;;;;;;0.50;0.50;;;21.20;49.60;;;;;;5913677;24;20616;-86
2022/09/02 08:17:04;;;;;;;0.65;0.60;;;21.20;49.50;;;;;;5914858;24;20209;-87
2022/09/02 08:19:31;;;;;;;0.52;0.50;;;21.20;49.30;;;;;;5913602;24;20647;-86
2022/09/02 08:22:04;;;;;;;2.00;0.65;;;21.20;49.20;;;;;;5930255;23;20186;-86
2022/09/02 08:24:34;;;;;;;0.90;0.65;;;21.20;49.30;;;;;;6034155;23;20201;-88
2022/09/02 08:27:00;;;;;;;0.60;0.60;;;21.20;49.20;;;;;;6040501;23;20560;-87
2022/09/02 08:29:26;;;;;;;0.70;0.60;;;21.20;49.00;;;;;;6043968;23;20240;-87
2022/09/02 08:31:56;;;;;;;1.13;0.60;;;21.20;48.90;;;;;;6021848;23;20172;-87
2022/09/02 08:34:22;;;;;;;0.90;0.60;;;21.20;49.30;;;;;;6063136;23;20260;-88
2022/09/02 08:36:51;;;;;;;0.70;0.50;;;21.20;48.50;;;;;;5991587;23;20173;-87
2022/09/02 08:39:17;;;;;;;0.70;0.50;;;21.30;48.50;;;;;;5991589;23;20217;-87
2022/09/02 08:42:06;;;;;;;0.88;0.60;;;21.30;48.50;;;;;;6037113;23;20589;-87
2022/09/02 08:44:37;;;;;;;0.50;0.50;;;21.20;48.40;;;;;;6052108;23;20220;-86
2022/09/02 08:47:05;;;;;;;0.50;0.50;;;21.20;48.30;;;;;;6038596;23;20166;-86
2022/09/02 08:49:34;;;;;;;0.60;0.40;;;21.30;48.30;;;;;;6015260;23;20166;-87
2022/09/02 08:52:01;;;;;;;0.55;0.55;;;21.30;48.40;;;;;;6038753;23;20271;-86
2022/09/02 08:54:50;;;;;;;0.57;0.57;;;21.30;48.30;;;;;;6015420;23;20526;-87
2022/09/02 08:57:17;;;;;;;0.57;0.57;;;21.20;48.00;;;;;;6010420;23;20203;-88
2022/09/02 08:59:45;;;;;;;0.55;0.55;;;21.30;48.10;;;;;;6011349;23;20164;-87
2022/09/02 09:02:40;;;;;;;0.60;0.60;;;21.20;48.00;;;;;;6010360;23;20163;-87
2022/09/02 09:05:38;;;;;;;0.93;0.70;;;21.20;47.80;;;;;;5987268;23;20170;-87
2022/09/02 09:08:19;;;;;;;0.60;0.60;;;21.30;48.00;;;;;;6032616;23;20539;-86
2022/09/02 09:11:03;;;;;;;0.80;0.50;;;21.30;47.90;;;;;;6005730;23;20165;-87
2022/09/02 09:13:54;;;;;;;1.13;0.50;;;21.20;48.00;;;;;;5994066;23;20168;-87
2022/09/02 09:16:40;;;;;;;0.40;0.40;;;21.10;47.70;;;;;;6009401;23;20200;-87
2022/09/02 09:19:13;;;;;;;0.73;0.68;;;21.20;47.50;;;;;;6013783;23;20278;-87
2022/09/02 09:21:40;;;;;;;0.50;0.50;;;21.20;47.50;;;;;;6019319;23;20169;-86
2022/09/02 09:24:14;;;;;;;0.40;0.40;;;21.20;47.20;;;;;;6043166;23;20161;-87
2022/09/02 09:26:43;;;;;;;0.70;0.45;;;21.30;47.30;;;;;;6021049;23;20153;-86
2022/09/02 09:29:10;;;;;;;0.50;0.50;;;21.20;47.20;;;;;;6043327;23;20248;-86
2022/09/02 09:31:38;;;;;;;0.50;0.50;;;21.20;47.20;;;;;;5991364;23;20170;-87
2022/09/02 09:34:10;;;;;;;0.40;0.40;;;21.20;47.10;;;;;;6040545;23;20158;-86
2022/09/02 09:36:46;;;;;;;0.75;0.63;;;21.20;47.20;;;;;;5991963;23;20158;-87
2022/09/02 09:39:23;;;;;;;0.40;0.40;;;21.20;47.30;;;;;;6038816;23;20208;-87
2022/09/02 09:42:05;;;;;;;0.35;0.35;;;21.20;47.30;;;;;;6015759;23;20270;-87
2022/09/02 09:44:43;;;;;;;0.40;0.40;;;21.10;47.30;;;;;;5993940;23;20161;-86
2022/09/02 09:47:18;;;;;;;0.43;0.43;;;21.10;47.40;;;;;;6028418;23;20165;-87
2022/09/02 09:49:45;;;;;;;0.55;0.52;;;21.10;47.40;;;;;;6075011;23;20149;-88
2022/09/02 09:52:20;;;;;;;0.45;0.45;;;21.10;47.40;;;;;;6073853;23;20163;-87
2022/09/02 09:54:46;;;;;;;0.60;0.40;;;21.20;48.10;;;;;;6073389;23;20164;-88
2022/09/02 09:57:16;;;;;;;0.55;0.50;;;21.20;47.40;;;;;;6073298;23;20160;-87
2022/09/02 09:59:45;;;;;;;0.43;0.40;;;21.20;47.30;;;;;;6072749;23;20510;-87
2022/09/02 10:02:19;;;;;;;0.88;0.40;;;21.10;47.50;;;;;;6087380;23;20610;-86
2022/09/02 10:04:44;;;;;;;0.40;0.40;;;21.10;47.20;;;;;;6083244;23;20163;-87
2022/09/02 10:07:16;;;;;;;2.88;0.45;;;21.10;47.30;;;;;;6083188;23;20613;-86
2022/09/02 10:09:42;;;;;;;1.38;0.40;;;21.00;47.20;;;;;;6082929;23;20233;-87
2022/09/02 10:12:11;;;;;;;1.05;0.50;;;21.10;47.40;;;;;;6066869;23;20605;-87
2022/09/02 10:14:38;;;;;;;3.33;0.65;;;21.20;47.20;;;;;;6019534;23;20272;-86
2022/09/02 10:17:28;;;;;;;1.27;0.40;;;21.20;47.20;;;;;;6043201;23;20157;-86
2022/09/02 10:20:21;;;;;;;0.70;0.57;;;21.20;47.10;;;;;;6071668;23;20153;-87
2022/09/02 10:23:16;;;;;;;0.55;0.50;;;21.20;47.10;;;;;;5958331;24;20166;-86
2022/09/02 10:26:05;;;;;;;2.30;0.50;;;21.20;47.10;;;;;;5981676;24;20140;-86
2022/09/02 10:28:52;;;;;;;2.92;0.50;;;21.10;47.10;;;;;;5981343;24;20144;-86
2022/09/02 10:31:29;;;;;;;1.45;0.30;;;21.10;47.20;;;;;;5958292;24;20242;-86
2022/09/02 10:34:25;;;;;;;0.45;0.40;;;21.10;47.30;;;;;;5959097;24;20169;-86
2022/09/02 10:37:12;;;;;;;0.40;0.40;;;21.10;47.50;;;;;;5981231;24;20190;-86
2022/09/02 10:40:05;;;;;;;0.65;0.50;;;21.00;47.50;;;;;;5981112;24;20162;-86
2022/09/02 10:42:39;;;;;;;3.45;0.55;;;21.00;47.50;;;;;;6027244;23;20161;-85
2022/09/02 10:45:27;;;;;;;2.45;0.85;;;21.00;47.40;;;;;;6042505;23;20698;-86
2022/09/02 10:48:05;;;;;;;4.50;0.50;;;21.00;47.40;;;;;;6066364;23;20164;-87
2022/09/02 10:50:39;;;;;;;2.42;0.60;;;21.00;47.50;;;;;;6043016;23;20153;-87
2022/09/02 10:53:25;;;;;;;3.05;0.60;;;21.00;47.50;;;;;;6086479;23;20159;-86
2022/09/02 10:55:58;;;;;;;0.63;0.40;;;20.90;47.50;;;;;;6131236;23;20167;-85
2022/09/02 10:58:38;;;;;;;1.13;0.40;;;21.00;47.40;;;;;;6082524;23;20148;-86
2022/09/02 11:01:05;;;;;;;2.63;0.50;;;20.90;47.50;;;;;;6129608;23;20190;-87
2022/09/02 11:03:46;;;;;;;1.95;0.40;;;21.00;47.70;;;;;;6129814;23;20132;-87
2022/09/02 11:06:29;;;;;;;3.05;0.50;;;21.00;47.80;;;;;;6155970;23;20135;-86
2022/09/02 11:09:00;;;;;;;1.67;0.40;;;21.00;47.90;;;;;;6104739;23;20598;-86
2022/09/02 11:11:56;;;;;;;0.77;0.40;;;21.00;48.20;;;;;;6081346;23;20491;-86
2022/09/02 11:14:35;;;;;;;0.73;0.45;;;20.90;48.30;;;;;;6129630;23;20179;-89
2022/09/02 11:17:07;;;;;;;0.50;0.40;;;20.90;48.60;;;;;;6156528;23;20508;-87
2022/09/02 11:19:40;;;;;;;1.48;0.63;;;21.00;48.90;;;;;;6105627;23;20201;-86
2022/09/02 11:22:34;;;;;;;1.75;0.65;;;20.90;49.10;;;;;;6155073;23;20587;-86
2022/09/02 11:25:13;;;;;;;1.88;0.40;;;20.90;49.20;;;;;;6112166;23;20166;-86
2022/09/02 11:27:54;;;;;;;0.95;0.40;;;20.90;49.30;;;;;;6155338;23;20182;-87
2022/09/02 11:30:21;;;;;;;1.33;0.80;;;20.90;49.50;;;;;;6130432;23;20143;-87
2022/09/02 11:33:06;;;;;;;1.63;0.50;;;20.90;49.60;;;;;;6105983;23;20135;-87
2022/09/02 11:35:37;;;;;;;2.15;0.40;;;20.90;49.60;;;;;;6129824;23;20182;-85
2022/09/02 11:38:16;;;;;;;1.27;0.30;;;20.80;49.60;;;;;;6179328;23;20201;-88
2022/09/02 11:41:22;;;;;;;1.95;0.40;;;20.80;49.60;;;;;;6156252;23;20191;-86
2022/09/02 11:44:13;;;;;;;0.40;0.40;;;20.90;49.70;;;;;;6109986;23;20202;-88
2022/09/02 11:46:56;;;;;;;0.47;0.40;;;20.80;49.30;;;;;;6134970;23;20132;-86
2022/09/02 11:49:42;;;;;;;1.02;0.60;;;20.80;49.20;;;;;;6129960;23;20152;-87
2022/09/02 11:52:45;;;;;;;2.20;0.40;;;20.80;49.00;;;;;;6081043;23;20151;-87
2022/09/02 11:55:19;;;;;;;3.00;0.63;;;20.80;48.90;;;;;;6129381;23;20198;-87
2022/09/02 11:57:56;;;;;;;0.45;0.40;;;20.80;48.90;;;;;;6034547;23;20190;-87
2022/09/02 12:00:33;;;;;;;0.40;0.40;;;20.80;48.70;;;;;;6081337;23;20598;-86
2022/09/02 12:03:15;;;;;;;0.32;0.30;;;20.80;48.70;;;;;;6035291;23;20250;-85
2022/09/02 12:05:48;;;;;;;1.05;0.40;;;20.80;48.60;;;;;;6035335;23;20166;-86
2022/09/02 12:08:26;;;;;;;0.85;0.40;;;20.80;48.60;;;;;;6053459;23;20167;-86
2022/09/02 12:10:58;;;;;;;1.85;0.55;;;20.80;48.60;;;;;;6099813;23;20608;-86
2022/09/02 12:13:42;;;;;;;1.25;0.50;;;20.80;48.60;;;;;;6076215;23;20160;-86
2022/09/02 12:16:39;;;;;;;0.65;0.55;;;20.80;48.60;;;;;;6077375;23;20202;-85
2022/09/02 12:19:24;;;;;;;2.40;0.60;;;20.90;48.60;;;;;;6075694;23;20166;-86
2022/09/02 12:22:25;;;;;;;1.90;0.40;;;20.80;48.50;;;;;;6031718;23;20160;-86
2022/09/02 12:24:56;;;;;;;0.75;0.30;;;20.80;48.50;;;;;;6053851;23;20174;-86
2022/09/02 12:27:35;;;;;;;1.40;0.60;;;20.80;48.40;;;;;;6054866;23;20163;-86
2022/09/02 12:30:04;;;;;;;1.33;0.40;;;20.80;48.50;;;;;;6057010;23;20160;-86
2022/09/02 12:33:03;;;;;;;0.40;0.40;;;20.90;48.50;;;;;;6079135;23;20156;-86
2022/09/02 12:35:48;;;;;;;0.30;0.30;;;20.80;48.50;;;;;;6027677;23;20517;-86
2022/09/02 12:38:21;;;;;;;0.80;0.40;;;20.80;48.50;;;;;;6068993;23;20570;-86
2022/09/02 12:41:13;;;;;;;0.55;0.25;;;20.80;48.50;;;;;;5996139;23;20188;-86
2022/09/02 12:44:00;;;;;;;1.20;0.50;;;20.90;48.60;;;;;;6045779;23;20157;-87
2022/09/02 12:46:52;;;;;;;1.67;0.38;;;20.80;48.50;;;;;;6042512;23;20157;-87
2022/09/02 12:49:43;;;;;;;0.77;0.52;;;20.80;48.50;;;;;;6042297;23;20224;-88
2022/09/02 12:52:10;;;;;;;1.67;0.30;;;20.80;48.40;;;;;;6042765;23;20785;-86
2022/09/02 12:54:47;;;;;;;0.40;0.40;;;20.80;48.40;;;;;;6020576;23;20169;-87
2022/09/02 12:57:15;;;;;;;0.57;0.35;;;20.80;48.20;;;;;;6044403;23;20161;-86
2022/09/02 12:59:42;;;;;;;0.47;0.40;;;20.80;48.20;;;;;;6069330;23;20141;-87
2022/09/02 13:02:36;;;;;;;0.50;0.30;;;20.80;48.20;;;;;;6043889;23;20184;-86
2022/09/02 13:05:35;;;;;;;0.50;0.43;;;20.90;48.20;;;;;;6043633;23;20157;-87
2022/09/02 13:08:28;;;;;;;0.43;0.30;;;20.90;48.30;;;;;;6138580;23;20198;-86
2022/09/02 13:11:27;;;;;;;0.30;0.30;;;20.90;48.30;;;;;;6113862;23;20582;-86
2022/09/02 13:14:18;;;;;;;0.30;0.30;;;20.80;48.20;;;;;;6111103;23;20159;-87
2022/09/02 13:17:09;;;;;;;0.35;0.35;;;20.90;48.30;;;;;;6132132;23;20143;-86
2022/09/02 13:19:47;;;;;;;0.68;0.30;;;20.90;48.20;;;;;;6136924;23;20529;-86